Flight Track Log - Related Links

Times and Time Zones

All times are in EDT time to prevent confusion due to time zone crossing. See the EJA831 flight status page for this flight to view local times or setup timezone preferences in your user account.

Time Position Orientation Groundspeed Altitude Reporting Facility
EDT Latitude Longitude Course Direction KTS MPH feet Rate Location/Type
Sun 11:21:36 AM 40.8333 -72.6667 333° Northwest 190 219 1,900  Level New York TRACON
Sun 11:22:30 AM 40.8833 -72.7000 333° Northwest 224 258 3,100 1,900 Climbing New York TRACON
Sun 11:23:36 AM 40.9500 -72.7333 339° North 257 296 5,700 1,381 Climbing New York TRACON
Sun 11:24:36 AM 41.0167 -72.7667 339° North 265 305 6,000 150 Climbing New York TRACON
Sun 11:25:36 AM 41.0833 -72.8333 323° Northwest 261 300 6,000  Level New York TRACON
Sun 11:26:36 AM 41.1333 -72.8833 323° Northwest 263 303 6,000  Level New York TRACON
Sun 11:27:36 AM 41.2000 -72.9500 323° Northwest 266 306 6,000  Level New York TRACON
Sun 11:28:36 AM 41.2333 -73.0167 304° West 272 313 6,000  Level New York TRACON
Sun 11:29:36 AM 41.2500 -73.1167 283° West 252 290 6,000  Level New York TRACON
Sun 11:30:36 AM 41.2500 -73.2167 270° West 257 296 6,000  Level New York TRACON
Sun 11:31:42 AM 41.2667 -73.3167 283° West 252 290 6,000  Level New York TRACON
Sun 11:32:42 AM 41.2667 -73.4000 270° West 251 289 6,000  Level New York TRACON
Sun 11:33:42 AM 41.2667 -73.5000 270° West 250 288 6,000  Level New York TRACON
Sun 11:34:42 AM 41.2833 -73.5833 285° West 249 287 6,000  Level New York TRACON
Sun 11:35:48 AM 41.2667 -73.6833 258° West 246 283 6,000  Level New York TRACON
Sun 11:36:48 AM 41.2667 -73.7667 270° West 249 287 6,000  Level New York TRACON
Sun 11:37:48 AM 41.2500 -73.8667 258° West 248 285 6,000 -400 Level New York TRACON
Sun 11:38:48 AM 41.2500 -73.9500 270° West 244 281 5,200 -952 Descending New York TRACON
Sun 11:39:54 AM 41.2333 -74.0500 258° West 248 285 4,000 -571 Descending New York TRACON
Sun 11:40:54 AM 41.2000 -74.1167 236° Southwest 246 283 4,000  Level New York TRACON
Sun 11:41:54 AM 41.1333 -74.1500 201° Southwest 247 284 4,000 -450 Level New York TRACON
Sun 11:42:54 AM 41.0833 -74.1833 207° Southwest 242 278 3,100 -500 Descending New York TRACON
Sun 11:43:54 AM 41.0167 -74.2333 210° Southwest 225 259 3,000 -48 Descending New York TRACON
Sun 11:45:00 AM 40.9667 -74.2667 207° Southwest 196 226 3,000 -190 Level New York TRACON
Sun 11:46:00 AM 40.9167 -74.3000 207° Southwest 198 228 2,600 -250 Descending New York TRACON
Sun 11:47:00 AM 40.8667 -74.3500 217° Southwest 178 205 2,500 -700 Descending New York TRACON
Sun 11:48:00 AM 40.8500 -74.3667 217° Southwest 133 153 1,200 -756 Descending New York TRACON
Sun 11:49:07 AM 40.8167 -74.4000 217° Southwest 127 146 900 -269 Descending New York TRACON
Sun 11:51:00 AM 40.7993 -74.4149 163° South  Level Estimated
Sun 11:58:00 AM 40.7993 -74.4149 163° South  Level Estimated
Sun 11:59:00 AM 40.7993 -74.4149 163° South  Level Estimated
Sun 12:00:00 PM 40.7993 -74.4149 163° South  Level Estimated

Login

Don't have an account? Register now (free) for customized features, flight alerts, and more!